Time;durP1;ratioP1;P1;durP2;ratioP2;P2;SDS_P1;SDS_P2;PMS_P1;PMS_P2;Temp;Humidity;BMP_temperature;BMP_pressure;BME280_temperature;BME280_humidity;BME280_pressure;Samples;Min_cycle;Max_cycle;Signal;HPM_P1;HPM_P2
2023/06/16 00:00:12;;;;;;;8.07;5.20;;;;;;;-142.57;98.66;115900.28;5035084;28;20032;-89
2023/06/16 00:02:44;;;;;;;11.00;5.32;;;;;;;-142.57;100.00;115900.28;5034321;28;20109;-87
2023/06/16 00:05:12;;;;;;;11.30;4.90;;;;;;;-142.57;100.00;115900.28;5033658;28;20242;-85
2023/06/16 00:07:39;;;;;;;7.82;5.25;;;;;;;-142.57;100.00;115900.28;5033239;28;20042;-88
2023/06/16 00:10:08;;;;;;;7.88;4.72;;;;;;;-142.57;100.00;115900.28;5035117;28;20060;-88
2023/06/16 00:12:35;;;;;;;7.63;4.80;;;;;;;-142.57;100.00;115900.28;5035164;28;20060;-88
2023/06/16 00:15:00;;;;;;;11.25;5.05;;;;;;;-142.57;100.00;115900.28;5017514;28;20045;-88
2023/06/16 00:17:26;;;;;;;15.15;5.60;;;;;;;-142.57;100.00;115900.28;5034999;28;20402;-89
2023/06/16 00:19:59;;;;;;;9.50;5.00;;;;;;;-142.57;100.00;115900.28;5035557;28;20441;-90
2023/06/16 00:22:26;;;;;;;7.93;5.30;;;;;;;-142.57;100.00;115900.28;5036200;28;20042;-90
2023/06/16 00:24:53;;;;;;;9.57;5.18;;;;;;;-142.57;100.00;115900.28;5035018;28;20272;-88
2023/06/16 00:27:22;;;;;;;7.65;4.75;;;;;;;-142.57;100.00;115900.28;5034840;28;20033;-87
2023/06/16 00:29:49;;;;;;;7.70;4.35;;;;;;;-142.57;99.73;115900.28;5016765;28;20045;-85
2023/06/16 00:32:14;;;;;;;9.05;4.15;;;;;;;-142.57;97.47;115900.28;5034506;28;20133;-88
2023/06/16 00:34:40;;;;;;;5.82;4.60;;;;;;;-142.57;96.59;115900.28;5001554;28;20053;-88
2023/06/16 00:37:05;;;;;;;5.47;4.30;;;;;;;-142.57;94.37;115900.28;5035903;28;20026;-87
2023/06/16 00:39:31;;;;;;;6.18;4.68;;;;;;;-142.57;94.01;115900.28;5035063;28;20486;-87
2023/06/16 00:41:58;;;;;;;6.13;5.10;;;;;;;-142.57;95.61;115900.28;5017808;28;20053;-88
2023/06/16 00:44:23;;;;;;;11.75;5.03;;;;;;;-142.57;98.00;115900.28;5035443;28;20038;-87
2023/06/16 00:46:49;;;;;;;7.55;4.93;;;;;;;-142.57;99.09;115900.28;5035553;28;20459;-89
2023/06/16 00:49:16;;;;;;;22.38;5.53;;;;;;;-142.57;98.16;115900.28;5018574;28;20483;-90
2023/06/16 00:51:43;;;;;;;9.73;5.43;;;;;;;-142.57;97.95;115900.28;5035363;28;20069;-87
2023/06/16 00:54:12;;;;;;;7.55;5.25;;;;;;;-142.57;96.75;115900.28;5001031;28;20065;-86
2023/06/16 00:56:41;;;;;;;8.35;5.38;;;;;;;-142.57;97.19;115900.28;5018464;28;20406;-87
2023/06/16 00:59:07;;;;;;;15.05;5.15;;;;;;;-142.57;96.32;115900.28;5038734;28;20525;-87
2023/06/16 01:01:34;;;;;;;8.15;4.80;;;;;;;-142.57;98.06;115900.28;5038938;28;20120;-86
2023/06/16 01:04:00;;;;;;;6.90;5.30;;;;;;;-142.57;100.00;115900.28;5040139;28;20041;-88
2023/06/16 01:06:41;;;;;;;8.05;4.75;;;;;;;-142.57;100.00;115900.28;5027767;28;20390;-86
2023/06/16 01:09:38;;;;;;;10.73;5.43;;;;;;;-142.57;100.00;115900.28;5031110;28;20065;-86
2023/06/16 01:12:26;;;;;;;7.60;5.10;;;;;;;-142.57;100.00;115900.28;5030649;28;20064;-85
2023/06/16 01:15:07;;;;;;;6.40;4.93;;;;;;;-142.57;100.00;115900.28;5029838;28;20077;-86
2023/06/16 01:17:37;;;;;;;6.45;4.57;;;;;;;-142.57;100.00;115900.28;5031681;28;20054;-86
2023/06/16 01:20:10;;;;;;;8.00;4.72;;;;;;;-142.57;100.00;115900.28;5050052;28;20101;-87
2023/06/16 01:23:06;;;;;;;8.55;4.82;;;;;;;-142.57;100.00;115900.28;5049002;28;20094;-89
2023/06/16 01:25:38;;;;;;;9.05;5.22;;;;;;;-142.57;100.00;115900.28;5050608;28;20036;-87
2023/06/16 01:28:05;;;;;;;10.57;5.17;;;;;;;-142.57;100.00;115900.28;5013541;28;20049;-87
2023/06/16 01:30:32;;;;;;;6.90;4.82;;;;;;;-142.57;100.00;115900.28;5031315;28;20284;-87
2023/06/16 01:32:58;;;;;;;8.32;4.72;;;;;;;-142.57;100.00;115900.28;5032368;28;20387;-86
2023/06/16 01:35:25;;;;;;;6.05;4.50;;;;;;;-142.57;100.00;115900.28;5032180;28;20033;-86
2023/06/16 01:37:53;;;;;;;9.98;5.85;;;;;;;-142.57;100.00;115900.28;5029169;28;20057;-87
2023/06/16 01:40:19;;;;;;;9.70;5.30;;;;;;;-142.57;100.00;115900.28;5046845;28;20033;-87
2023/06/16 01:42:48;;;;;;;9.65;5.65;;;;;;;-142.57;100.00;115900.28;5027660;28;20030;-86
2023/06/16 01:45:16;;;;;;;9.15;5.85;;;;;;;-142.57;100.00;115900.28;5029846;28;20030;-85
2023/06/16 01:47:43;;;;;;;7.65;5.85;;;;;;;-142.57;100.00;115900.28;5029066;28;20030;-87
2023/06/16 01:50:11;;;;;;;7.07;5.50;;;;;;;-142.57;100.00;115900.28;5029008;28;20065;-84
2023/06/16 01:52:37;;;;;;;10.55;5.80;;;;;;;-142.57;100.00;115900.28;5027446;28;20033;-89
2023/06/16 01:55:03;;;;;;;8.38;5.82;;;;;;;-142.57;100.00;115900.28;5023158;28;20052;-87
2023/06/16 01:57:28;;;;;;;9.32;5.78;;;;;;;-142.57;100.00;115900.28;5021364;28;20037;-86
2023/06/16 02:00:01;;;;;;;12.13;5.43;;;;;;;-142.57;100.00;115900.28;5023102;28;20045;-88
2023/06/16 02:02:29;;;;;;;12.45;5.97;;;;;;;-142.57;100.00;115900.28;5024693;28;20034;-85
2023/06/16 02:04:55;;;;;;;9.88;7.40;;;;;;;-142.57;100.00;115900.28;5038675;28;20435;-87
2023/06/16 02:07:30;;;;;;;9.18;5.80;;;;;;;-142.57;100.00;115900.28;5039215;28;20025;-86
2023/06/16 02:09:58;;;;;;;12.05;6.88;;;;;;;-142.57;100.00;115900.28;5038576;28;20033;-86
2023/06/16 02:12:24;;;;;;;9.57;6.43;;;;;;;-142.57;100.00;115900.28;5021281;28;20124;-85
2023/06/16 02:14:51;;;;;;;12.50;6.68;;;;;;;-142.57;100.00;115900.28;5020324;28;20029;-88
2023/06/16 02:17:17;;;;;;;13.82;7.13;;;;;;;-142.57;100.00;115900.28;5003549;28;20042;-86
2023/06/16 02:19:43;;;;;;;10.88;7.90;;;;;;;-142.57;100.00;115900.28;5019991;28;20124;-88
2023/06/16 02:22:10;;;;;;;10.82;8.25;;;;;;;-142.57;100.00;115900.28;5003976;28;20140;-84
2023/06/16 02:24:36;;;;;;;11.57;7.97;;;;;;;-142.57;100.00;115900.28;5022155;28;20065;-85
2023/06/16 02:27:03;;;;;;;10.45;7.63;;;;;;;-142.57;100.00;115900.28;5018677;28;20026;-85
2023/06/16 02:29:31;;;;;;;11.02;8.13;;;;;;;-142.57;100.00;115900.28;4994574;28;20412;-84
2023/06/16 02:31:57;;;;;;;11.50;8.38;;;;;;;-142.57;100.00;115900.28;5018477;28;20041;-86
2023/06/16 02:34:22;;;;;;;11.60;8.27;;;;;;;-142.57;100.00;115900.28;5024257;28;20038;-88
2023/06/16 02:36:50;;;;;;;16.10;8.27;;;;;;;-142.57;100.00;115900.28;5000147;28;20025;-86
2023/06/16 02:39:17;;;;;;;14.63;8.25;;;;;;;-142.57;100.00;115900.28;4999989;28;20042;-87
2023/06/16 02:41:43;;;;;;;12.63;9.00;;;;;;;-142.57;100.00;115900.28;5017726;28;20037;-89
2023/06/16 02:44:09;;;;;;;16.30;8.68;;;;;;;-142.57;100.00;115900.28;4982831;28;20034;-86
2023/06/16 02:46:35;;;;;;;13.32;9.10;;;;;;;-142.57;100.00;115900.28;5017957;28;20091;-86
2023/06/16 02:49:01;;;;;;;14.45;8.75;;;;;;;-142.57;100.00;115900.28;4999243;28;20034;-86
2023/06/16 02:51:26;;;;;;;12.50;8.65;;;;;;;-142.57;100.00;115900.28;4999222;28;20042;-86
2023/06/16 02:53:52;;;;;;;14.80;8.50;;;;;;;-142.57;100.00;115900.28;4999699;28;20455;-88
2023/06/16 02:56:20;;;;;;;13.75;9.05;;;;;;;-142.57;100.00;115900.28;5000743;28;20026;-87
2023/06/16 02:58:47;;;;;;;15.27;9.38;;;;;;;-142.57;100.00;115900.28;5004994;28;20105;-86
2023/06/16 03:01:14;;;;;;;14.93;9.07;;;;;;;-142.57;100.00;115900.28;5006306;28;20068;-86
2023/06/16 03:04:00;;;;;;;12.52;8.98;;;;;;;-142.57;100.00;115900.28;5021936;28;20038;-86
2023/06/16 03:06:35;;;;;;;14.52;8.98;;;;;;;-142.57;100.00;115900.28;5012926;28;20030;-83
2023/06/16 03:09:06;;;;;;;14.45;8.80;;;;;;;-142.57;100.00;115900.28;5016489;28;20038;-83
2023/06/16 03:11:35;;;;;;;12.27;8.73;;;;;;;-142.57;100.00;115900.28;5015547;28;20105;-88
2023/06/16 03:14:01;;;;;;;10.90;8.23;;;;;;;-142.57;100.00;115900.28;5014199;28;20030;-87
2023/06/16 03:16:29;;;;;;;12.30;8.90;;;;;;;-142.57;100.00;115900.28;5014656;28;20037;-85
2023/06/16 03:18:58;;;;;;;12.02;9.20;;;;;;;-142.57;100.00;115900.28;5016307;28;20092;-86
2023/06/16 03:21:24;;;;;;;13.63;8.93;;;;;;;-142.57;100.00;115900.28;5011425;28;20487;-86
2023/06/16 03:23:51;;;;;;;11.13;8.50;;;;;;;-142.57;100.00;115900.28;5002984;28;20471;-86
2023/06/16 03:26:18;;;;;;;17.42;8.45;;;;;;;-142.57;100.00;115900.28;5002348;28;20037;-88
2023/06/16 03:29:02;;;;;;;16.25;8.65;;;;;;;-142.57;100.00;115900.28;5018693;28;20067;-87
2023/06/16 03:31:32;;;;;;;16.23;8.18;;;;;;;-142.57;100.00;115900.28;4969739;28;20046;-85
2023/06/16 03:34:01;;;;;;;13.68;8.48;;;;;;;-142.57;100.00;115900.28;5000033;28;20479;-89
2023/06/16 03:36:27;;;;;;;11.43;8.20;;;;;;;-142.57;100.00;115900.28;5016427;28;20049;-87
2023/06/16 03:38:53;;;;;;;15.35;8.65;;;;;;;-142.57;100.00;115900.28;4998596;28;20046;-85
2023/06/16 03:41:19;;;;;;;14.32;8.55;;;;;;;-142.57;100.00;115900.28;4998567;28;20044;-86
2023/06/16 03:43:44;;;;;;;14.05;8.27;;;;;;;-142.57;100.00;115900.28;4998687;28;20034;-85
2023/06/16 03:46:10;;;;;;;12.82;8.27;;;;;;;-142.57;100.00;115900.28;4974172;28;20084;-86
2023/06/16 03:48:36;;;;;;;11.20;8.27;;;;;;;-142.57;100.00;115900.28;5008309;28;20054;-86
2023/06/16 03:51:04;;;;;;;19.85;9.43;;;;;;;-142.57;100.00;115900.28;4984241;28;20132;-88
2023/06/16 03:53:30;;;;;;;14.10;7.70;;;;;;;-142.57;100.00;115900.28;5007210;28;20479;-86
2023/06/16 03:55:58;;;;;;;12.95;8.55;;;;;;;-142.57;100.00;115900.28;4981301;28;20026;-88
2023/06/16 03:58:24;;;;;;;12.55;8.10;;;;;;;-142.57;100.00;115900.28;4980053;28;20093;-86
2023/06/16 04:00:50;;;;;;;11.32;8.23;;;;;;;-142.57;100.00;115900.28;4986508;28;20045;-89
2023/06/16 04:03:35;;;;;;;13.32;8.23;;;;;;;-142.57;100.00;115900.28;5002908;28;20041;-88
2023/06/16 04:06:02;;;;;;;14.88;8.77;;;;;;;-142.57;100.00;115900.28;5001264;28;20041;-85
2023/06/16 04:08:27;;;;;;;16.52;8.20;;;;;;;-142.57;100.00;115900.28;5020112;28;20080;-87
2023/06/16 04:10:57;;;;;;;11.48;7.05;;;;;;;-142.57;100.00;115900.28;5005478;28;20092;-87
2023/06/16 04:14:02;;;;;;;16.90;8.52;;;;;;;-142.57;100.00;115900.28;4993550;28;20061;-85
2023/06/16 04:16:29;;;;;;;13.77;8.40;;;;;;;-142.57;100.00;115900.28;5004220;28;20046;-89
2023/06/16 04:18:57;;;;;;;17.55;8.45;;;;;;;-142.57;100.00;115900.28;5020136;28;20018;-85
2023/06/16 04:21:23;;;;;;;17.70;7.57;;;;;;;-142.57;100.00;115900.28;5003163;28;20041;-83
2023/06/16 04:24:11;;;;;;;12.50;8.10;;;;;;;-142.57;100.00;115900.28;5036817;28;20021;-87
2023/06/16 04:26:37;;;;;;;13.52;8.68;;;;;;;-142.57;100.00;115900.28;5019641;28;20049;-87
2023/06/16 04:29:05;;;;;;;10.55;7.03;;;;;;;-142.57;100.00;115900.28;5031627;28;20021;-85
2023/06/16 04:31:35;;;;;;;13.35;7.95;;;;;;;-142.57;100.00;115900.28;5035739;28;20029;-82
2023/06/16 04:34:04;;;;;;;17.67;8.10;;;;;;;-142.57;100.00;115900.28;5010520;28;20061;-86
2023/06/16 04:36:31;;;;;;;13.68;7.90;;;;;;;-142.57;100.00;115900.28;5019139;28;20032;-88
2023/06/16 04:38:59;;;;;;;16.30;7.97;;;;;;;-142.57;100.00;115900.28;5019599;28;20018;-85
2023/06/16 04:41:25;;;;;;;12.90;7.57;;;;;;;-142.57;100.00;115900.28;5017849;28;20022;-84
2023/06/16 04:43:51;;;;;;;11.27;7.90;;;;;;;-142.57;100.00;115900.28;5018452;28;20038;-82
2023/06/16 04:46:17;;;;;;;17.48;7.60;;;;;;;-142.57;100.00;115900.28;5008989;28;20483;-89
2023/06/16 04:48:43;;;;;;;14.93;8.13;;;;;;;-142.57;100.00;115900.28;5016219;28;20060;-89
2023/06/16 04:51:08;;;;;;;15.00;8.00;;;;;;;-142.57;100.00;115900.28;5016644;28;20063;-84
2023/06/16 04:53:36;;;;;;;13.10;7.50;;;;;;;-142.57;100.00;115900.28;5013851;28;20407;-84
2023/06/16 04:56:02;;;;;;;10.55;7.13;;;;;;;-142.57;100.00;115900.28;5015600;28;20037;-80
2023/06/16 04:58:29;;;;;;;13.82;7.05;;;;;;;-142.57;100.00;115900.28;5017770;28;20052;-86
2023/06/16 05:00:54;;;;;;;11.98;7.50;;;;;;;-142.57;100.00;115900.28;5034864;28;20045;-86
2023/06/16 05:03:22;;;;;;;14.93;6.97;;;;;;;-142.57;100.00;115900.28;5018583;28;20116;-89
2023/06/16 05:05:47;;;;;;;20.15;7.00;;;;;;;-142.57;100.00;115900.28;5018476;28;20026;-88
2023/06/16 05:08:13;;;;;;;10.20;6.85;;;;;;;-142.57;100.00;115900.28;5016499;28;20033;-89
2023/06/16 05:10:40;;;;;;;11.68;7.35;;;;;;;-142.57;100.00;115900.28;5017691;28;20038;-89
2023/06/16 05:13:05;;;;;;;11.25;6.95;;;;;;;-142.57;100.00;115900.28;5000077;28;20018;-87
2023/06/16 05:15:31;;;;;;;16.15;7.47;;;;;;;-142.57;100.00;115900.28;5015431;28;20104;-88
2023/06/16 05:17:57;;;;;;;13.43;7.55;;;;;;;-142.57;100.00;115900.28;4997629;28;20447;-89
2023/06/16 05:20:23;;;;;;;14.57;7.57;;;;;;;-142.57;98.52;115900.28;5000418;28;20041;-90
2023/06/16 05:22:49;;;;;;;14.52;6.95;;;;;;;-142.57;95.67;115900.28;5009057;28;20111;-89
2023/06/16 05:25:15;;;;;;;13.40;7.35;;;;;;;-142.57;92.65;115900.28;4999450;28;20022;-88
2023/06/16 05:27:40;;;;;;;16.35;7.32;;;;;;;-142.57;94.08;115900.28;4987272;28;20483;-88
2023/06/16 05:30:07;;;;;;;9.77;7.00;;;;;;;-142.57;95.97;115900.28;4998434;28;20046;-88
2023/06/16 05:32:32;;;;;;;18.10;8.35;;;;;;;-142.57;95.72;115900.28;5000633;28;20410;-88
2023/06/16 05:34:59;;;;;;;18.08;7.97;;;;;;;-142.57;98.18;115900.28;5015112;28;20022;-86
2023/06/16 05:37:28;;;;;;;21.60;11.00;;;;;;;-142.57;98.61;115900.28;5014278;28;20030;-86
2023/06/16 05:39:53;;;;;;;31.60;15.75;;;;;;;-142.57;96.71;115900.28;4997897;28;20045;-90
2023/06/16 05:42:20;;;;;;;26.85;10.95;;;;;;;-142.57;97.67;115900.28;4983218;28;20049;-90
2023/06/16 05:44:47;;;;;;;14.93;10.13;;;;;;;-142.57;100.00;115900.28;4999679;28;20034;-90
2023/06/16 05:47:15;;;;;;;22.15;9.35;;;;;;;-142.57;100.00;115900.28;4985392;28;20068;-90
2023/06/16 05:49:40;;;;;;;16.70;9.60;;;;;;;-142.57;100.00;115900.28;4975056;28;20034;-89
2023/06/16 05:52:07;;;;;;;14.23;8.95;;;;;;;-142.57;100.00;115900.28;4989843;28;20061;-88
2023/06/16 05:54:37;;;;;;;13.68;9.23;;;;;;;-142.57;100.00;115900.28;4979036;28;20077;-90
2023/06/16 05:57:06;;;;;;;25.23;10.70;;;;;;;-142.57;100.00;115900.28;4992099;28;20053;-86
2023/06/16 05:59:31;;;;;;;20.23;10.38;;;;;;;-142.57;100.00;115900.28;5007133;28;20138;-86
2023/06/16 06:01:57;;;;;;;17.38;10.20;;;;;;;-142.57;100.00;115900.28;5033809;28;20037;-90
2023/06/16 06:04:31;;;;;;;21.33;11.02;;;;;;;-142.57;98.06;115900.28;5022379;28;20053;-89
2023/06/16 06:07:00;;;;;;;21.83;11.57;;;;;;;-142.57;99.32;115900.28;5039628;28;20046;-89
2023/06/16 06:09:27;;;;;;;26.45;12.23;;;;;;;-142.57;100.00;115900.28;5034996;28;20142;-89
2023/06/16 06:11:54;;;;;;;17.52;12.68;;;;;;;-142.57;98.53;115900.28;5005147;28;20034;-92
2023/06/16 06:14:20;;;;;;;23.67;13.32;;;;;;;-142.57;100.00;115900.28;4994955;28;20008;-91
2023/06/16 06:16:46;;;;;;;17.88;12.57;;;;;;;-142.57;98.60;115900.28;4980688;28;20037;-91
2023/06/16 06:19:12;;;;;;;20.67;13.18;;;;;;;-142.57;94.53;115900.28;5013290;28;20046;-89
2023/06/16 06:21:39;;;;;;;23.42;13.40;;;;;;;-142.57;95.09;115900.28;4990284;28;20462;-90
2023/06/16 06:24:06;;;;;;;16.65;12.52;;;;;;;-142.57;90.79;115900.28;4986452;28;20057;-90
2023/06/16 06:26:32;;;;;;;20.58;12.40;;;;;;;-142.57;89.37;115900.28;4986535;28;20065;-84
2023/06/16 06:28:59;;;;;;;26.75;13.05;;;;;;;-142.57;88.68;115900.28;4989717;28;20066;-82
2023/06/16 06:31:28;;;;;;;21.02;13.00;;;;;;;-142.57;86.55;115900.28;5012061;28;20090;-86
2023/06/16 06:33:55;;;;;;;21.70;13.90;;;;;;;-142.57;84.91;115900.28;4990219;28;20030;-85
2023/06/16 06:36:28;;;;;;;16.77;12.95;;;;;;;-142.57;81.53;115900.28;4996449;28;20464;-89
2023/06/16 06:38:56;;;;;;;28.55;14.18;;;;;;;-142.57;80.97;115900.28;4992901;28;20133;-82
2023/06/16 06:41:23;;;;;;;20.15;13.82;;;;;;;-142.57;80.94;115900.28;4989814;28;20088;-82
2023/06/16 06:43:51;;;;;;;23.50;13.32;;;;;;;-142.57;81.07;115900.28;4996920;28;20022;-87
2023/06/16 06:46:37;;;;;;;20.27;13.18;;;;;;;-142.57;73.96;115900.28;5011921;28;20107;-82
2023/06/16 06:49:02;;;;;;;18.92;11.35;;;;;;;-142.57;68.34;115900.28;5004073;28;20034;-89
2023/06/16 06:51:33;;;;;;;21.27;12.82;;;;;;;-142.57;63.50;115900.28;4989728;28;20105;-87
2023/06/16 06:53:59;;;;;;;20.95;12.73;;;;;;;-142.57;65.75;115900.28;5004197;28;20061;-84
2023/06/16 06:56:24;;;;;;;21.70;11.05;;;;;;;-142.57;57.99;115900.28;5007910;28;20098;-85
2023/06/16 06:58:50;;;;;;;14.23;11.27;;;;;;;-142.57;61.31;115900.28;5013186;28;20037;-82
2023/06/16 07:01:15;;;;;;;15.05;12.30;;;;;;;-142.57;68.37;115900.28;5004162;28;20030;-79
2023/06/16 07:03:41;;;;;;;21.85;13.25;;;;;;;-142.57;65.24;115900.28;5002741;28;20457;-81
2023/06/16 07:06:06;;;;;;;18.00;12.82;;;;;;;-142.57;63.54;115900.28;5004522;28;20127;-85
2023/06/16 07:08:32;;;;;;;22.58;12.35;;;;;;;-142.57;62.21;115900.28;4986722;28;20057;-86
2023/06/16 07:11:01;;;;;;;18.00;12.73;;;;;;;-142.57;61.75;115900.28;5005627;28;20034;-82
2023/06/16 07:13:29;;;;;;;23.75;11.95;;;;;;;-142.57;59.39;115900.28;5008386;28;20030;-86
2023/06/16 07:15:59;;;;;;;28.17;12.18;;;;;;;-142.57;60.09;115900.28;5010493;28;20029;-85
2023/06/16 07:18:26;;;;;;;17.92;11.15;;;;;;;-142.57;58.08;115900.28;5007639;28;20038;-83
2023/06/16 07:20:52;;;;;;;17.48;11.50;;;;;;;-142.57;55.41;115900.28;5005746;28;20030;-83
2023/06/16 07:23:18;;;;;;;17.08;11.65;;;;;;;-142.57;56.92;115900.28;4957284;28;1306632;-84
2023/06/16 07:25:47;;;;;;;17.52;10.77;;;;;;;-142.57;56.56;115900.28;5006410;28;20101;-82
2023/06/16 07:28:16;;;;;;;15.10;10.20;;;;;;;-142.57;55.97;115900.28;4997516;28;20049;-84
2023/06/16 07:30:41;;;;;;;13.57;10.35;;;;;;;-142.57;54.90;115900.28;5011830;28;20128;-84
2023/06/16 07:33:07;;;;;;;14.55;10.52;;;;;;;-142.57;51.51;115900.28;5004840;28;20030;-81
2023/06/16 07:35:37;;;;;;;16.65;10.57;;;;;;;-142.57;49.11;115900.28;5009210;28;20034;-86
2023/06/16 07:38:02;;;;;;;25.75;12.98;;;;;;;-142.57;58.31;115900.28;5011130;28;20054;-82
2023/06/16 07:40:28;;;;;;;23.35;12.35;;;;;;;-142.57;58.41;115900.28;5009399;28;20125;-83
2023/06/16 07:42:53;;;;;;;23.10;12.00;;;;;;;-142.57;58.58;115900.28;5005316;28;20030;-82
2023/06/16 07:45:19;;;;;;;36.33;12.07;;;;;;;-142.57;57.38;115900.28;5009056;28;20026;-88
2023/06/16 07:47:48;;;;;;;18.50;10.90;;;;;;;-142.57;54.36;115900.28;5007948;28;20034;-83
2023/06/16 07:50:13;;;;;;;22.35;10.68;;;;;;;-142.57;53.68;115900.28;4995945;28;20125;-82
2023/06/16 07:52:41;;;;;;;17.52;9.35;;;;;;;-142.57;49.71;115900.28;5021384;28;20072;-83
2023/06/16 07:55:10;;;;;;;12.57;9.65;;;;;;;-142.57;48.72;115900.28;5028663;28;20399;-84
2023/06/16 08:00:24;;;;;;;18.67;7.95;;;;;;;-142.57;46.42;115900.28;4684868;26;20046;-83
2023/06/16 08:02:51;;;;;;;18.85;8.70;;;;;;;-142.57;47.64;115900.28;5008648;28;20049;-80
2023/06/16 08:05:17;;;;;;;13.02;8.75;;;;;;;-142.57;47.28;115900.28;5007835;28;20034;-82
2023/06/16 08:07:43;;;;;;;14.85;8.48;;;;;;;-142.57;45.99;115900.28;5000689;28;20065;-81
2023/06/16 08:10:11;;;;;;;15.38;8.43;;;;;;;-142.57;46.22;115900.28;5021970;28;20037;-80
2023/06/16 08:12:37;;;;;;;13.07;7.30;;;;;;;-142.57;43.91;115900.28;5013579;28;20034;-80
2023/06/16 08:15:03;;;;;;;12.35;7.00;;;;;;;-142.57;42.40;115900.28;4997974;28;20026;-79
2023/06/16 08:17:41;;;;;;;9.68;7.13;;;;;;;-142.57;42.24;115900.28;4992937;28;20381;-89
2023/06/16 08:20:17;;;;;;;17.10;7.20;;;;;;;-142.57;44.40;115900.28;5008281;28;20059;-88
2023/06/16 08:22:43;;;;;;;13.63;7.35;;;;;;;-142.57;42.80;115900.28;5007675;28;20078;-87
2023/06/16 08:25:08;;;;;;;8.82;6.70;;;;;;;-142.57;43.63;115900.28;5004832;28;20129;-90
2023/06/16 08:27:35;;;;;;;11.95;6.43;;;;;;;-142.57;39.64;115900.28;5015920;28;20030;-87
2023/06/16 08:30:04;;;;;;;11.85;6.57;;;;;;;-142.57;39.36;115900.28;5003013;28;20607;-87
2023/06/16 08:32:33;;;;;;;12.18;6.38;;;;;;;-142.57;41.82;115900.28;4979999;28;20038;-88
2023/06/16 08:34:58;;;;;;;11.90;6.40;;;;;;;-142.57;44.33;115900.28;5006758;28;20404;-88
2023/06/16 08:37:27;;;;;;;11.93;6.57;;;;;;;-142.57;42.80;115900.28;5002315;28;20027;-87
2023/06/16 08:40:10;;;;;;;13.00;7.47;;;;;;;-142.57;43.39;115900.28;4987257;28;20557;-85
2023/06/16 08:42:38;;;;;;;9.38;7.03;;;;;;;-142.57;42.45;115900.28;4983628;28;21232;-88
2023/06/16 08:45:05;;;;;;;11.50;6.90;;;;;;;-142.57;42.56;115900.28;4989700;28;20038;-83
2023/06/16 08:47:42;;;;;;;10.63;7.47;;;;;;;-142.57;42.43;115900.28;4984817;28;20044;-85
2023/06/16 08:50:09;;;;;;;12.65;7.15;;;;;;;-142.57;42.33;115900.28;4994380;28;20041;-83
2023/06/16 08:52:40;;;;;;;11.98;7.03;;;;;;;-142.57;41.63;115900.28;4996975;28;20043;-85
2023/06/16 08:55:19;;;;;;;12.80;7.50;;;;;;;-142.57;41.59;115900.28;5010622;28;20027;-85
2023/06/16 08:57:47;;;;;;;12.60;6.47;;;;;;;-142.57;40.01;115900.28;5002466;28;20046;-84
2023/06/16 09:00:17;;;;;;;11.27;7.07;;;;;;;-142.57;38.24;115900.28;4999307;28;20408;-83
2023/06/16 09:02:48;;;;;;;11.80;6.57;;;;;;;-142.57;37.03;115900.28;5008432;28;20500;-87
2023/06/16 09:05:15;;;;;;;15.32;8.13;;;;;;;-142.57;38.94;115900.28;4999786;28;20041;-86
2023/06/16 09:07:41;;;;;;;18.95;7.47;;;;;;;-142.57;39.01;115900.28;4977598;28;20442;-86
2023/06/16 09:10:08;;;;;;;12.27;7.90;;;;;;;-142.57;38.11;115900.28;4988302;28;20049;-87
2023/06/16 09:12:35;;;;;;;22.30;8.43;;;;;;;-142.57;37.89;115900.28;4978687;28;20026;-85
2023/06/16 09:15:01;;;;;;;21.77;7.85;;;;;;;-142.57;39.80;115900.28;4991495;28;20049;-86
2023/06/16 09:17:29;;;;;;;15.70;8.27;;;;;;;-142.57;39.07;115900.28;5005166;28;20040;-88
2023/06/16 09:19:55;;;;;;;16.65;7.93;;;;;;;-142.57;39.45;115900.28;4980734;28;20044;-90
2023/06/16 09:22:26;;;;;;;15.98;8.80;;;;;;;-142.57;40.01;115900.28;5001790;28;20030;-88
2023/06/16 09:25:05;;;;;;;10.80;7.53;;;;;;;-142.57;39.04;115900.28;4988382;28;20035;-88
2023/06/16 09:27:44;;;;;;;15.70;7.60;;;;;;;-142.57;39.53;115900.28;5001079;28;20108;-87
2023/06/16 09:30:15;;;;;;;10.40;7.03;;;;;;;-142.57;38.53;115900.28;4988135;28;20049;-84
2023/06/16 09:32:41;;;;;;;12.48;8.10;;;;;;;-142.57;38.38;115900.28;5011191;28;20061;-84
2023/06/16 09:35:17;;;;;;;16.83;9.25;;;;;;;-142.57;37.02;115900.28;5004380;28;20069;-84
2023/06/16 09:37:44;;;;;;;16.15;8.75;;;;;;;-142.57;37.78;115900.28;5007600;28;20031;-83
2023/06/16 09:40:11;;;;;;;15.13;7.30;;;;;;;-142.57;38.93;115900.28;4970536;28;20132;-86
2023/06/16 09:42:38;;;;;;;20.20;9.20;;;;;;;-142.57;38.07;115900.28;5015995;28;20093;-85
2023/06/16 09:45:11;;;;;;;12.38;8.57;;;;;;;-142.57;37.70;115900.28;5001929;28;20041;-85
2023/06/16 09:47:38;;;;;;;20.10;9.40;;;;;;;-142.57;37.83;115900.28;4984987;28;20042;-88
2023/06/16 09:50:11;;;;;;;13.85;9.45;;;;;;;-142.57;37.86;115900.28;4988516;28;20039;-86
2023/06/16 09:52:37;;;;;;;20.48;9.75;;;;;;;-142.57;37.76;115900.28;4957423;28;20076;-88
2023/06/16 09:55:04;;;;;;;17.33;9.55;;;;;;;-142.57;37.55;115900.28;5016461;28;20034;-88
2023/06/16 09:57:30;;;;;;;12.35;7.53;;;;;;;-142.57;38.13;115900.28;5019140;28;20044;-86
2023/06/16 09:59:55;;;;;;;23.23;8.95;;;;;;;-142.57;37.81;115900.28;5020951;28;20487;-88
2023/06/16 10:02:23;;;;;;;22.98;10.73;;;;;;;-142.57;37.85;115900.28;5007192;28;20034;-85
2023/06/16 10:04:51;;;;;;;19.95;10.07;;;;;;;-142.57;37.54;115900.28;5006315;28;20057;-88
2023/06/16 10:07:18;;;;;;;14.70;10.40;;;;;;;-142.57;38.51;115900.28;4955580;28;20034;-87
2023/06/16 10:09:48;;;;;;;12.57;8.55;;;;;;;-142.57;38.49;115900.28;5003548;28;20380;-88
2023/06/16 10:12:16;;;;;;;15.18;9.48;;;;;;;-142.57;38.12;115900.28;5004694;28;20079;-87
2023/06/16 10:14:43;;;;;;;15.43;8.50;;;;;;;-142.57;37.91;115900.28;5006447;28;20503;-87
2023/06/16 10:17:10;;;;;;;18.50;8.40;;;;;;;-142.57;37.02;115900.28;5003212;28;20045;-86
2023/06/16 10:19:46;;;;;;;14.80;9.80;;;;;;;-142.57;38.27;115900.28;5019420;28;20034;-86
2023/06/16 10:22:13;;;;;;;14.55;8.25;;;;;;;-142.57;37.40;115900.28;5006770;28;20053;-86
2023/06/16 10:24:39;;;;;;;14.82;9.43;;;;;;;-142.57;36.78;115900.28;5005060;28;20018;-84
2023/06/16 10:27:08;;;;;;;11.45;8.18;;;;;;;-142.57;36.46;115900.28;5008818;28;20030;-89
2023/06/16 10:29:34;;;;;;;15.32;9.45;;;;;;;-142.57;36.41;115900.28;4987355;28;20084;-87
2023/06/16 10:32:10;;;;;;;16.85;8.82;;;;;;;-142.57;37.02;115900.28;5017147;28;20034;-83
2023/06/16 10:34:49;;;;;;;10.93;7.30;;;;;;;-142.57;36.13;115900.28;5011812;28;20036;-86
2023/06/16 10:37:15;;;;;;;15.05;7.20;;;;;;;-142.57;35.22;115900.28;5005598;28;20112;-87
2023/06/16 10:39:43;;;;;;;12.65;6.80;;;;;;;-142.57;35.07;115900.28;5002165;28;20096;-88
2023/06/16 10:42:13;;;;;;;11.70;6.55;;;;;;;-142.57;34.48;115900.28;5006520;28;20025;-88
2023/06/16 10:44:40;;;;;;;14.15;6.78;;;;;;;-142.57;33.84;115900.28;4971616;28;20041;-87
2023/06/16 10:47:08;;;;;;;9.82;5.82;;;;;;;-142.57;34.00;115900.28;4987740;28;20034;-90
2023/06/16 10:49:44;;;;;;;14.27;7.70;;;;;;;-142.57;34.09;115900.28;5012209;28;20488;-85
2023/06/16 10:52:09;;;;;;;17.80;12.48;;;;;;;-142.57;34.36;115900.28;4978028;28;20063;-87
2023/06/16 10:54:48;;;;;;;15.60;9.20;;;;;;;-142.57;34.30;115900.28;4994571;28;20034;-88
2023/06/16 10:57:17;;;;;;;10.85;7.45;;;;;;;-142.57;34.37;115900.28;5008408;28;20030;-87
2023/06/16 11:00:12;;;;;;;27.70;13.27;;;;;;;-142.57;34.83;115900.28;5011692;28;20065;-87
2023/06/16 11:02:48;;;;;;;12.35;6.20;;;;;;;-142.57;34.08;115900.28;5000826;28;20043;-88
2023/06/16 11:05:14;;;;;;;13.52;6.45;;;;;;;-142.57;33.33;115900.28;4998688;28;20445;-86